createdAt,value
2023-01-19T00:01:51.139Z,3.90
2023-01-19T00:04:17.993Z,3.90
2023-01-19T00:06:44.817Z,3.90
2023-01-19T00:09:11.793Z,3.90
2023-01-19T00:11:39.048Z,3.90
2023-01-19T00:14:05.911Z,3.90
2023-01-19T00:16:32.837Z,3.80
2023-01-19T00:18:59.813Z,3.80
2023-01-19T00:21:26.657Z,3.80
2023-01-19T00:23:53.563Z,3.80
2023-01-19T00:26:22.227Z,3.80
2023-01-19T00:28:50.350Z,3.80
2023-01-19T00:31:17.300Z,3.80
2023-01-19T00:33:52.190Z,3.80
2023-01-19T00:36:19.580Z,3.80
2023-01-19T00:38:50.843Z,3.80
2023-01-19T00:41:20.089Z,3.80
2023-01-19T00:43:55.947Z,3.90
2023-01-19T00:46:27.261Z,3.80
2023-01-19T00:49:05.100Z,3.80
2023-01-19T00:51:35.505Z,3.80
2023-01-19T00:54:17.108Z,3.80
2023-01-19T00:56:54.907Z,3.80
2023-01-19T00:59:35.681Z,3.80
2023-01-19T01:02:10.011Z,3.80
2023-01-19T01:04:45.142Z,3.70
2023-01-19T01:07:19.868Z,3.70
2023-01-19T01:12:38.190Z,3.70
2023-01-19T01:15:11.731Z,3.70
2023-01-19T01:17:58.951Z,3.70
2023-01-19T01:20:33.049Z,3.70
2023-01-19T01:23:02.646Z,3.70
2023-01-19T01:25:38.926Z,3.70
2023-01-19T01:28:08.704Z,3.70
2023-01-19T01:30:39.966Z,3.70
2023-01-19T01:33:07.732Z,3.70
2023-01-19T01:35:34.573Z,3.70
2023-01-19T01:38:01.409Z,3.70
2023-01-19T01:40:28.702Z,3.70
2023-01-19T01:43:01.952Z,3.70
2023-01-19T01:45:41.142Z,3.70
2023-01-19T01:48:11.352Z,3.70
2023-01-19T01:51:10.089Z,3.70
2023-01-19T01:53:40.141Z,3.70
2023-01-19T01:56:23.464Z,3.70
2023-01-19T01:59:08.227Z,3.70
2023-01-19T02:01:54.837Z,3.70
2023-01-19T02:04:26.106Z,3.60
2023-01-19T02:07:17.193Z,3.60
2023-01-19T02:10:17.490Z,3.60
2023-01-19T02:13:12.252Z,3.60
2023-01-19T02:15:44.308Z,3.50
2023-01-19T02:18:11.271Z,3.60
2023-01-19T02:20:39.490Z,3.60
2023-01-19T02:23:15.804Z,3.60
2023-01-19T02:25:47.110Z,3.60
2023-01-19T02:28:17.748Z,3.60
2023-01-19T02:30:46.773Z,3.60
2023-01-19T02:33:21.691Z,3.60
2023-01-19T02:35:50.055Z,3.60
2023-01-19T02:38:17.660Z,3.50
2023-01-19T02:40:51.067Z,3.50
2023-01-19T02:43:27.381Z,3.50
2023-01-19T02:45:59.333Z,3.50
2023-01-19T02:48:36.371Z,3.50
2023-01-19T02:51:09.409Z,3.50
2023-01-19T02:53:40.634Z,3.40
2023-01-19T02:56:10.473Z,3.50
2023-01-19T02:58:43.420Z,3.40
2023-01-19T03:01:19.719Z,3.40
2023-01-19T03:03:56.100Z,3.40
2023-01-19T03:06:46.309Z,3.30
2023-01-19T03:09:38.956Z,3.30
2023-01-19T03:12:28.203Z,3.30
2023-01-19T03:15:17.308Z,3.30
2023-01-19T03:17:58.378Z,3.30
2023-01-19T03:20:29.026Z,3.30
2023-01-19T03:23:01.006Z,3.30
2023-01-19T03:25:37.962Z,3.30
2023-01-19T03:28:05.611Z,3.20
2023-01-19T03:30:38.506Z,3.20
2023-01-19T03:33:13.754Z,3.20
2023-01-19T03:35:48.986Z,3.20
2023-01-19T03:38:21.227Z,3.30
2023-01-19T03:41:01.233Z,3.20
2023-01-19T03:43:36.457Z,3.20
2023-01-19T03:46:12.111Z,3.00
2023-01-19T03:48:49.751Z,3.10
2023-01-19T03:51:31.881Z,3.10
2023-01-19T03:54:01.663Z,3.00
2023-01-19T03:56:29.068Z,3.10
2023-01-19T03:58:57.126Z,3.10
2023-01-19T04:01:25.143Z,3.10
2023-01-19T04:03:52.793Z,3.10
2023-01-19T04:06:20.487Z,3.10
2023-01-19T04:08:48.864Z,3.00
2023-01-19T04:11:16.091Z,3.00
2023-01-19T04:13:43.129Z,3.00
2023-01-19T04:16:10.783Z,3.00
2023-01-19T04:18:37.769Z,3.00
2023-01-19T04:21:05.962Z,3.00
2023-01-19T04:23:33.781Z,3.00
2023-01-19T04:26:05.363Z,3.00
2023-01-19T04:28:32.924Z,3.00
2023-01-19T04:30:59.793Z,3.00
2023-01-19T04:33:27.498Z,3.00
2023-01-19T04:35:56.205Z,3.00
2023-01-19T04:38:23.965Z,2.90
2023-01-19T04:40:52.796Z,2.90
2023-01-19T04:43:20.241Z,2.90
2023-01-19T04:45:47.631Z,2.90
2023-01-19T04:48:14.779Z,2.90
2023-01-19T04:50:44.500Z,2.80
2023-01-19T04:53:13.653Z,2.80
2023-01-19T04:55:40.828Z,2.80
2023-01-19T04:58:07.920Z,2.80
2023-01-19T05:00:34.895Z,2.80
2023-01-19T05:03:02.453Z,2.80
2023-01-19T05:05:29.645Z,2.80
2023-01-19T05:07:56.529Z,2.80
2023-01-19T05:10:23.956Z,2.80
2023-01-19T05:12:51.359Z,2.80
2023-01-19T05:15:18.563Z,2.80
2023-01-19T05:17:45.812Z,2.80
2023-01-19T05:20:16.114Z,2.70
2023-01-19T05:22:43.760Z,2.70
2023-01-19T05:25:10.573Z,2.70
2023-01-19T05:27:37.487Z,2.70
2023-01-19T05:30:05.638Z,2.70
2023-01-19T05:32:32.842Z,2.70
2023-01-19T05:34:59.715Z,2.60
2023-01-19T05:37:26.561Z,2.60
2023-01-19T05:39:53.726Z,2.60
2023-01-19T05:42:20.841Z,2.60
2023-01-19T05:44:47.752Z,2.60
2023-01-19T05:47:14.785Z,2.60
2023-01-19T05:49:41.764Z,2.60
2023-01-19T05:52:08.655Z,2.60
2023-01-19T05:54:35.562Z,2.60
2023-01-19T05:57:03.185Z,2.60
2023-01-19T05:59:30.047Z,2.60
2023-01-19T06:01:57.339Z,2.60
2023-01-19T06:04:24.461Z,2.60
2023-01-19T06:06:51.428Z,2.50
2023-01-19T06:09:18.334Z,2.60
2023-01-19T06:11:45.484Z,2.60
2023-01-19T06:14:12.450Z,2.50
2023-01-19T06:16:39.423Z,2.60
2023-01-19T06:19:06.353Z,2.50
2023-01-19T06:21:34.407Z,2.60
2023-01-19T06:24:01.338Z,2.60
2023-01-19T06:26:28.224Z,2.50
2023-01-19T06:28:55.334Z,2.50
2023-01-19T06:31:22.232Z,2.50
2023-01-19T06:33:49.170Z,2.60
2023-01-19T06:36:16.043Z,2.60
2023-01-19T06:38:42.858Z,2.60
2023-01-19T06:41:09.678Z,2.60
2023-01-19T06:43:36.534Z,2.50
2023-01-19T06:46:04.077Z,2.60
2023-01-19T06:48:30.959Z,2.50
2023-01-19T06:51:05.007Z,2.50
2023-01-19T06:53:38.979Z,2.60
2023-01-19T06:56:08.695Z,2.60
2023-01-19T06:58:42.963Z,2.50
2023-01-19T07:01:15.845Z,2.60
2023-01-19T07:03:44.477Z,2.60
2023-01-19T07:06:24.014Z,2.60
2023-01-19T07:08:58.420Z,2.60
2023-01-19T07:11:41.447Z,2.60
2023-01-19T07:14:08.474Z,2.60
2023-01-19T07:16:35.468Z,2.60
2023-01-19T07:19:02.451Z,2.60
2023-01-19T07:21:29.755Z,2.60
2023-01-19T07:23:56.712Z,2.60
2023-01-19T07:26:34.168Z,2.60
2023-01-19T07:29:04.588Z,2.60
2023-01-19T07:31:34.259Z,2.70
2023-01-19T07:34:01.493Z,2.60
2023-01-19T07:36:28.348Z,2.60
2023-01-19T07:38:55.262Z,2.70
2023-01-19T07:41:22.140Z,2.60
2023-01-19T07:43:51.425Z,2.60
2023-01-19T07:46:18.429Z,2.60
2023-01-19T07:48:45.330Z,2.70
2023-01-19T07:51:17.895Z,2.70
2023-01-19T07:53:45.507Z,2.70
2023-01-19T07:56:12.610Z,2.70
2023-01-19T07:58:39.645Z,2.60
2023-01-19T08:01:13.646Z,2.60
2023-01-19T08:03:40.659Z,2.60
2023-01-19T08:06:07.791Z,2.60
2023-01-19T08:08:34.703Z,2.70
2023-01-19T08:11:01.600Z,2.60
2023-01-19T08:13:28.444Z,2.60
2023-01-19T08:15:55.414Z,2.60
2023-01-19T08:18:22.297Z,2.60
2023-01-19T08:20:49.268Z,2.70
2023-01-19T08:23:18.100Z,2.60
2023-01-19T08:25:46.112Z,2.70
2023-01-19T08:28:14.094Z,2.70
2023-01-19T08:30:41.671Z,2.80
2023-01-19T08:33:08.636Z,2.70
2023-01-19T08:35:37.167Z,2.80
2023-01-19T08:38:04.639Z,2.80
2023-01-19T08:40:34.813Z,2.80
2023-01-19T08:43:04.950Z,2.80
2023-01-19T08:45:31.843Z,2.80
2023-01-19T08:48:01.599Z,2.80
2023-01-19T08:50:29.432Z,2.80
2023-01-19T08:53:01.256Z,2.90
2023-01-19T08:55:29.577Z,3.00
2023-01-19T08:57:58.093Z,2.90
2023-01-19T09:00:25.610Z,3.00
2023-01-19T09:02:52.821Z,3.00
2023-01-19T09:05:20.336Z,3.00
2023-01-19T09:07:48.351Z,3.00
2023-01-19T09:10:15.849Z,3.00
2023-01-19T09:12:43.985Z,3.10
2023-01-19T09:15:14.003Z,3.00
2023-01-19T09:17:43.840Z,3.00
2023-01-19T09:20:10.927Z,3.10
2023-01-19T09:22:39.755Z,3.10
2023-01-19T09:25:12.568Z,3.10
2023-01-19T09:27:42.430Z,3.10
2023-01-19T09:30:11.536Z,3.10
2023-01-19T09:32:38.427Z,3.20
2023-01-19T09:35:05.438Z,3.20
2023-01-19T09:37:32.317Z,3.20
2023-01-19T09:39:59.379Z,3.20
2023-01-19T09:42:29.384Z,3.20
2023-01-19T09:44:56.414Z,3.20
2023-01-19T09:47:26.268Z,3.30
2023-01-19T09:50:16.631Z,3.30
2023-01-19T09:52:44.823Z,3.30
2023-01-19T09:55:20.678Z,3.40
2023-01-19T09:57:47.568Z,3.40
2023-01-19T10:00:19.176Z,3.40
2023-01-19T10:02:48.897Z,3.50
2023-01-19T10:05:22.439Z,3.50
2023-01-19T10:07:55.521Z,3.50
2023-01-19T10:10:24.732Z,3.50
2023-01-19T10:13:04.041Z,3.40
2023-01-19T10:15:31.106Z,3.50
2023-01-19T10:17:58.124Z,3.50
2023-01-19T10:20:29.537Z,3.50
2023-01-19T10:22:57.325Z,3.50
2023-01-19T10:25:24.675Z,3.60
2023-01-19T10:27:51.974Z,3.50
2023-01-19T10:30:23.842Z,3.60
2023-01-19T10:32:51.274Z,3.50
2023-01-19T10:35:26.393Z,3.60
2023-01-19T10:37:58.337Z,3.60
2023-01-19T10:40:28.061Z,3.60
2023-01-19T10:42:56.297Z,3.60
2023-01-19T10:45:32.236Z,3.60
2023-01-19T10:48:00.778Z,3.50
2023-01-19T10:50:30.853Z,3.50
2023-01-19T10:53:03.766Z,3.50
2023-01-19T10:55:35.186Z,3.50
2023-01-19T10:58:02.167Z,3.50
2023-01-19T11:00:31.498Z,3.50
2023-01-19T11:02:58.633Z,3.60
2023-01-19T11:05:29.797Z,3.60
2023-01-19T11:07:56.745Z,3.60
2023-01-19T11:10:25.160Z,3.60
2023-01-19T11:12:57.173Z,3.60
2023-01-19T11:15:29.671Z,3.60
2023-01-19T11:17:56.828Z,3.60
2023-01-19T11:20:26.051Z,3.60
2023-01-19T11:23:13.161Z,3.60
2023-01-19T11:25:40.598Z,3.60
2023-01-19T11:28:15.822Z,3.70
2023-01-19T11:30:53.792Z,3.70
2023-01-19T11:33:32.458Z,3.60
2023-01-19T11:36:19.257Z,3.60
2023-01-19T11:38:50.798Z,3.70
2023-01-19T11:41:17.995Z,3.70
2023-01-19T11:43:49.708Z,3.60
2023-01-19T11:46:22.340Z,3.70
2023-01-19T11:48:58.241Z,3.70
2023-01-19T11:51:28.829Z,3.60
2023-01-19T11:54:06.852Z,3.60
2023-01-19T11:56:44.434Z,3.60
2023-01-19T11:59:15.013Z,3.60
2023-01-19T12:01:54.897Z,3.60
2023-01-19T12:04:36.457Z,3.60
2023-01-19T12:07:16.584Z,3.60
2023-01-19T12:09:57.156Z,3.60
2023-01-19T12:12:27.304Z,3.60
2023-01-19T12:15:29.977Z,3.60
2023-01-19T12:18:06.491Z,3.60
2023-01-19T12:20:55.868Z,3.60
2023-01-19T12:23:28.450Z,3.60
2023-01-19T12:26:03.221Z,3.60
2023-01-19T12:28:49.674Z,3.50
2023-01-19T12:31:23.343Z,3.50
2023-01-19T12:33:54.754Z,3.50
2023-01-19T12:36:38.265Z,3.50
2023-01-19T12:39:18.084Z,3.40
2023-01-19T12:42:07.430Z,3.40
2023-01-19T12:44:42.350Z,3.40
2023-01-19T12:47:31.629Z,3.50
2023-01-19T12:50:07.120Z,3.50
2023-01-19T12:52:42.829Z,3.50
2023-01-19T12:55:15.914Z,3.50
2023-01-19T12:58:00.791Z,3.50
2023-01-19T13:00:48.222Z,3.60
2023-01-19T13:03:27.163Z,3.60
2023-01-19T13:05:59.645Z,3.60
2023-01-19T13:08:30.102Z,3.60
2023-01-19T13:11:06.222Z,3.60
2023-01-19T13:13:50.784Z,3.60
2023-01-19T13:16:25.761Z,3.60
2023-01-19T13:19:26.178Z,3.70
2023-01-19T13:22:08.186Z,3.60
2023-01-19T13:25:02.228Z,3.60
2023-01-19T13:27:40.573Z,3.60
2023-01-19T13:30:11.935Z,3.50
2023-01-19T13:32:48.553Z,3.50
2023-01-19T13:35:22.409Z,3.50
2023-01-19T13:37:52.380Z,3.60
2023-01-19T13:40:33.713Z,3.60
2023-01-19T13:43:10.997Z,3.60
2023-01-19T13:45:56.515Z,3.60
2023-01-19T13:48:25.108Z,3.60
2023-01-19T13:51:04.896Z,3.60
2023-01-19T13:53:37.507Z,3.60
2023-01-19T13:56:26.815Z,3.60
2023-01-19T13:59:04.850Z,3.60
2023-01-19T14:01:40.076Z,3.70
2023-01-19T14:04:27.321Z,3.70
2023-01-19T14:06:57.836Z,3.70
2023-01-19T14:09:30.736Z,3.60
2023-01-19T14:12:10.130Z,3.60
2023-01-19T14:14:38.425Z,3.60
2023-01-19T14:17:31.115Z,3.60
2023-01-19T14:20:01.241Z,3.60
2023-01-19T14:23:10.400Z,3.60
2023-01-19T14:25:46.866Z,3.70
2023-01-19T14:28:29.650Z,3.60
2023-01-19T14:31:09.221Z,3.60
2023-01-19T14:33:48.450Z,3.60
2023-01-19T14:36:40.052Z,3.60
2023-01-19T14:39:33.681Z,3.50
2023-01-19T14:42:03.397Z,3.50
2023-01-19T14:44:51.345Z,3.60
2023-01-19T14:47:46.875Z,3.50
2023-01-19T14:50:32.095Z,3.60
2023-01-19T14:53:04.615Z,3.60
2023-01-19T14:55:58.365Z,3.60
2023-01-19T14:58:29.487Z,3.50
2023-01-19T15:01:09.043Z,3.50
2023-01-19T15:03:46.256Z,3.50
2023-01-19T15:06:43.058Z,3.50
2023-01-19T15:09:17.785Z,3.50
2023-01-19T15:11:57.726Z,3.50
2023-01-19T15:14:34.293Z,3.50
2023-01-19T15:17:16.763Z,3.50
2023-01-19T15:19:50.295Z,3.50
2023-01-19T15:22:28.619Z,3.50
2023-01-19T15:25:13.454Z,3.50
2023-01-19T15:27:44.728Z,3.50
2023-01-19T15:30:39.112Z,3.40
2023-01-19T15:33:06.229Z,3.40
2023-01-19T15:35:33.519Z,3.40
2023-01-19T15:38:00.471Z,3.40
2023-01-19T15:40:27.627Z,3.40
2023-01-19T15:42:54.639Z,3.40
2023-01-19T15:45:21.614Z,3.40
2023-01-19T15:47:48.659Z,3.40
2023-01-19T15:50:15.806Z,3.30
2023-01-19T15:52:43.763Z,3.30
2023-01-19T15:55:11.591Z,3.30
2023-01-19T15:57:38.551Z,3.30
2023-01-19T16:00:06.072Z,3.30
2023-01-19T16:02:37.825Z,3.30
2023-01-19T16:05:05.450Z,3.30
2023-01-19T16:07:35.526Z,3.30
2023-01-19T16:10:03.534Z,3.30
2023-01-19T16:12:30.583Z,3.30
2023-01-19T16:14:57.736Z,3.20
2023-01-19T16:17:24.690Z,3.20
2023-01-19T16:19:51.850Z,3.20
2023-01-19T16:22:18.869Z,3.20
2023-01-19T16:24:46.002Z,3.20
2023-01-19T16:27:13.044Z,3.10
2023-01-19T16:29:40.079Z,3.10
2023-01-19T16:32:07.020Z,3.10
2023-01-19T16:34:34.434Z,3.00
2023-01-19T16:37:01.465Z,2.90
2023-01-19T16:39:28.538Z,2.90
2023-01-19T16:41:55.835Z,2.90
2023-01-19T16:44:24.041Z,2.90
2023-01-19T16:46:55.206Z,2.90
2023-01-19T16:49:28.159Z,2.90
2023-01-19T16:51:58.450Z,2.90
2023-01-19T16:54:26.205Z,2.90
2023-01-19T16:56:54.318Z,2.80
2023-01-19T16:59:22.964Z,2.80
2023-01-19T17:01:51.540Z,2.80
2023-01-19T17:04:20.028Z,2.80
2023-01-19T17:06:48.702Z,2.80
2023-01-19T17:09:16.424Z,2.80
2023-01-19T17:11:43.660Z,2.80
2023-01-19T17:14:13.328Z,2.80
2023-01-19T17:16:47.119Z,2.80
2023-01-19T17:19:16.569Z,2.80
2023-01-19T17:21:50.059Z,2.70
2023-01-19T17:24:18.875Z,2.70
2023-01-19T17:26:49.086Z,2.70
2023-01-19T17:29:21.621Z,2.70
2023-01-19T17:31:50.714Z,2.70
2023-01-19T17:34:18.939Z,2.60
2023-01-19T17:36:46.820Z,2.60
2023-01-19T17:39:16.772Z,2.60
2023-01-19T17:41:53.918Z,2.50
2023-01-19T17:44:25.176Z,2.60
2023-01-19T17:46:53.163Z,2.40
2023-01-19T17:49:21.430Z,2.40
2023-01-19T17:51:59.520Z,2.40
2023-01-19T17:54:27.933Z,2.30
2023-01-19T17:56:58.164Z,2.30
2023-01-19T17:59:26.820Z,2.20
2023-01-19T18:01:54.768Z,2.20
2023-01-19T18:04:23.299Z,2.20
2023-01-19T18:06:51.099Z,2.10
2023-01-19T18:09:19.263Z,2.00
2023-01-19T18:11:47.676Z,2.10
2023-01-19T18:14:16.334Z,2.00
2023-01-19T18:16:44.545Z,1.90
2023-01-19T18:19:12.223Z,1.80
2023-01-19T18:21:39.503Z,1.90
2023-01-19T18:24:07.579Z,1.80
2023-01-19T18:26:35.759Z,1.70
2023-01-19T18:29:03.364Z,1.70
2023-01-19T18:31:31.431Z,1.70
2023-01-19T18:33:59.038Z,1.70
2023-01-19T18:36:27.274Z,1.70
2023-01-19T18:38:55.409Z,1.80
2023-01-19T18:41:27.449Z,1.80
2023-01-19T18:44:00.215Z,1.80
2023-01-19T18:46:29.393Z,1.80
2023-01-19T18:48:58.976Z,1.80
2023-01-19T18:51:27.029Z,1.80
2023-01-19T18:53:54.211Z,1.80
2023-01-19T18:56:21.635Z,1.80
2023-01-19T18:58:50.813Z,1.80
2023-01-19T19:01:23.626Z,1.70
2023-01-19T19:03:53.696Z,1.50
2023-01-19T19:06:22.211Z,1.50
2023-01-19T19:08:52.199Z,1.50
2023-01-19T19:11:20.172Z,1.60
2023-01-19T19:13:51.930Z,1.60
2023-01-19T19:16:20.886Z,1.60
2023-01-19T19:18:50.424Z,1.50
2023-01-19T19:21:19.954Z,1.50
2023-01-19T19:23:55.498Z,1.50
2023-01-19T19:26:26.595Z,1.60
2023-01-19T19:28:54.635Z,1.60
2023-01-19T19:31:23.311Z,1.60
2023-01-19T19:33:51.596Z,1.60
2023-01-19T19:36:23.590Z,1.60
2023-01-19T19:38:54.633Z,1.60
2023-01-19T19:41:23.526Z,1.50
2023-01-19T19:43:51.553Z,1.60
2023-01-19T19:46:20.662Z,1.60
2023-01-19T19:48:48.663Z,1.60
2023-01-19T19:51:19.277Z,1.60
2023-01-19T19:53:50.937Z,1.60
2023-01-19T19:56:21.566Z,1.60
2023-01-19T19:58:49.707Z,1.60
2023-01-19T20:01:21.602Z,1.60
2023-01-19T20:03:50.253Z,1.60
2023-01-19T20:06:21.790Z,1.60
2023-01-19T20:08:52.447Z,1.50
2023-01-19T20:11:21.441Z,1.60
2023-01-19T20:13:49.884Z,1.60
2023-01-19T20:16:18.353Z,1.60
2023-01-19T20:19:08.055Z,1.60
2023-01-19T20:21:37.466Z,1.60
2023-01-19T20:24:13.351Z,1.60
2023-01-19T20:26:43.381Z,1.60
2023-01-19T20:29:11.619Z,1.70
2023-01-19T20:31:42.144Z,1.70
2023-01-19T20:34:28.146Z,1.70
2023-01-19T20:36:56.331Z,1.60
2023-01-19T20:39:25.150Z,1.60
2023-01-19T20:41:53.110Z,1.50
2023-01-19T20:44:22.924Z,1.50
2023-01-19T20:46:51.140Z,1.50
2023-01-19T20:49:20.228Z,1.50
2023-01-19T20:51:48.963Z,1.60
2023-01-19T20:54:17.715Z,1.60
2023-01-19T20:56:45.258Z,1.60
2023-01-19T20:59:15.908Z,1.50
2023-01-19T21:01:44.197Z,1.50
2023-01-19T21:04:12.769Z,1.60
2023-01-19T21:06:40.851Z,1.50
2023-01-19T21:09:09.412Z,1.50
2023-01-19T21:11:37.134Z,1.50
2023-01-19T21:14:09.547Z,1.50
2023-01-19T21:16:37.525Z,1.50
2023-01-19T21:19:05.046Z,1.50
2023-01-19T21:21:32.422Z,1.50
2023-01-19T21:24:02.398Z,1.40
2023-01-19T21:26:33.657Z,1.40
2023-01-19T21:29:01.930Z,1.50
2023-01-19T21:31:29.521Z,1.50
2023-01-19T21:33:57.503Z,1.50
2023-01-19T21:36:24.729Z,1.50
2023-01-19T21:38:52.634Z,1.60
2023-01-19T21:41:19.890Z,1.60
2023-01-19T21:43:47.072Z,1.60
2023-01-19T21:46:30.909Z,1.60
2023-01-19T21:49:01.954Z,1.60
2023-01-19T21:51:29.713Z,1.60
2023-01-19T21:53:59.839Z,1.60
2023-01-19T21:56:27.843Z,1.60
2023-01-19T21:58:56.531Z,1.60
2023-01-19T22:01:24.163Z,1.60
2023-01-19T22:03:55.553Z,1.60
2023-01-19T22:06:22.670Z,1.60
2023-01-19T22:08:50.113Z,1.60
2023-01-19T22:11:17.531Z,1.60
2023-01-19T22:13:44.843Z,1.50
2023-01-19T22:16:19.337Z,1.40
2023-01-19T22:18:49.582Z,1.40
2023-01-19T22:21:18.265Z,1.40
2023-01-19T22:23:48.012Z,1.40
2023-01-19T22:26:14.906Z,1.40
2023-01-19T22:28:41.875Z,1.40
2023-01-19T22:31:10.217Z,1.40
2023-01-19T22:33:37.313Z,1.40
2023-01-19T22:36:10.315Z,1.40
2023-01-19T22:38:39.141Z,1.40
2023-01-19T22:41:20.886Z,1.40
2023-01-19T22:43:48.624Z,1.30
2023-01-19T22:46:19.829Z,1.30
2023-01-19T22:48:47.484Z,1.30
2023-01-19T22:51:14.831Z,1.20
2023-01-19T22:53:41.734Z,1.20
2023-01-19T22:56:16.094Z,1.20
2023-01-19T22:58:46.006Z,1.20
2023-01-19T23:01:13.939Z,1.20
2023-01-19T23:03:40.970Z,1.20
2023-01-19T23:06:09.162Z,1.10
2023-01-19T23:08:36.313Z,1.20
2023-01-19T23:11:07.702Z,1.10
2023-01-19T23:13:34.828Z,1.00
2023-01-19T23:16:02.133Z,1.00
2023-01-19T23:18:29.632Z,1.00
2023-01-19T23:20:56.684Z,1.10
2023-01-19T23:23:23.794Z,1.10
2023-01-19T23:25:50.849Z,1.10
2023-01-19T23:28:17.746Z,1.00
2023-01-19T23:30:44.723Z,1.00
2023-01-19T23:33:11.782Z,1.00
2023-01-19T23:35:38.835Z,1.00
2023-01-19T23:38:06.243Z,1.00
2023-01-19T23:40:33.257Z,0.90
2023-01-19T23:43:00.235Z,0.80
2023-01-19T23:45:27.111Z,0.70
2023-01-19T23:47:54.108Z,0.70
2023-01-19T23:50:21.178Z,0.70
2023-01-19T23:52:48.369Z,0.60
2023-01-19T23:55:16.960Z,0.60
2023-01-19T23:57:43.979Z,0.60
